sensor_id;sensor_type;location;lat;lon;timestamp;P1;durP1;ratioP1;P2;durP2;ratioP2
80307;SDS011;69616;43.522;1.348;2023-07-28T00:01:25;5.53;;;1.70;;
80307;SDS011;69616;43.522;1.348;2023-07-28T00:03:50;4.97;;;1.67;;
80307;SDS011;69616;43.522;1.348;2023-07-28T00:06:16;4.93;;;1.60;;
80307;SDS011;69616;43.522;1.348;2023-07-28T00:08:41;6.17;;;1.83;;
80307;SDS011;69616;43.522;1.348;2023-07-28T00:11:10;5.20;;;1.67;;
80307;SDS011;69616;43.522;1.348;2023-07-28T00:13:40;4.75;;;1.77;;
80307;SDS011;69616;43.522;1.348;2023-07-28T00:16:06;4.07;;;1.15;;
80307;SDS011;69616;43.522;1.348;2023-07-28T00:18:32;4.55;;;1.60;;
80307;SDS011;69616;43.522;1.348;2023-07-28T00:20:58;5.83;;;1.40;;
80307;SDS011;69616;43.522;1.348;2023-07-28T00:23:23;6.27;;;1.70;;
80307;SDS011;69616;43.522;1.348;2023-07-28T00:25:49;4.68;;;1.50;;
80307;SDS011;69616;43.522;1.348;2023-07-28T00:28:14;5.93;;;1.60;;
80307;SDS011;69616;43.522;1.348;2023-07-28T00:30:40;5.10;;;1.60;;
80307;SDS011;69616;43.522;1.348;2023-07-28T00:33:05;4.77;;;1.80;;
80307;SDS011;69616;43.522;1.348;2023-07-28T00:35:30;4.77;;;1.63;;
80307;SDS011;69616;43.522;1.348;2023-07-28T00:37:56;4.63;;;1.60;;
80307;SDS011;69616;43.522;1.348;2023-07-28T00:40:22;4.70;;;1.48;;
80307;SDS011;69616;43.522;1.348;2023-07-28T00:42:48;5.40;;;1.70;;
80307;SDS011;69616;43.522;1.348;2023-07-28T00:45:13;6.27;;;1.50;;
80307;SDS011;69616;43.522;1.348;2023-07-28T00:47:39;6.45;;;1.80;;
80307;SDS011;69616;43.522;1.348;2023-07-28T00:50:05;5.60;;;1.90;;
80307;SDS011;69616;43.522;1.348;2023-07-28T00:52:32;6.40;;;1.90;;
80307;SDS011;69616;43.522;1.348;2023-07-28T00:54:57;7.10;;;1.80;;
80307;SDS011;69616;43.522;1.348;2023-07-28T00:57:23;7.07;;;1.60;;
80307;SDS011;69616;43.522;1.348;2023-07-28T00:59:48;5.20;;;1.90;;
80307;SDS011;69616;43.522;1.348;2023-07-28T01:02:13;6.97;;;1.70;;
80307;SDS011;69616;43.522;1.348;2023-07-28T01:04:39;7.40;;;1.80;;
80307;SDS011;69616;43.522;1.348;2023-07-28T01:07:21;6.05;;;1.67;;
80307;SDS011;69616;43.522;1.348;2023-07-28T01:10:10;7.30;;;1.57;;
80307;SDS011;69616;43.522;1.348;2023-07-28T01:12:39;10.10;;;1.77;;
80307;SDS011;69616;43.522;1.348;2023-07-28T01:15:05;7.60;;;1.87;;
80307;SDS011;69616;43.522;1.348;2023-07-28T01:17:31;4.37;;;1.57;;
80307;SDS011;69616;43.522;1.348;2023-07-28T01:19:57;5.85;;;1.73;;
80307;SDS011;69616;43.522;1.348;2023-07-28T01:28:22;7.15;;;1.98;;
80307;SDS011;69616;43.522;1.348;2023-07-28T01:30:48;5.95;;;1.80;;
80307;SDS011;69616;43.522;1.348;2023-07-28T01:33:14;5.97;;;1.70;;
80307;SDS011;69616;43.522;1.348;2023-07-28T01:35:39;5.25;;;1.95;;
80307;SDS011;69616;43.522;1.348;2023-07-28T01:38:05;6.97;;;1.90;;
80307;SDS011;69616;43.522;1.348;2023-07-28T01:40:30;6.43;;;1.80;;
80307;SDS011;69616;43.522;1.348;2023-07-28T01:42:56;5.20;;;1.67;;
80307;SDS011;69616;43.522;1.348;2023-07-28T01:45:22;5.53;;;1.70;;
80307;SDS011;69616;43.522;1.348;2023-07-28T01:47:47;5.73;;;1.77;;
80307;SDS011;69616;43.522;1.348;2023-07-28T01:50:13;5.87;;;1.80;;
80307;SDS011;69616;43.522;1.348;2023-07-28T01:52:38;5.72;;;1.50;;
80307;SDS011;69616;43.522;1.348;2023-07-28T01:55:03;6.80;;;1.53;;
80307;SDS011;69616;43.522;1.348;2023-07-28T01:57:32;6.28;;;1.92;;
80307;SDS011;69616;43.522;1.348;2023-07-28T01:59:58;4.87;;;1.70;;
80307;SDS011;69616;43.522;1.348;2023-07-28T02:02:24;8.32;;;1.52;;
80307;SDS011;69616;43.522;1.348;2023-07-28T02:04:49;4.20;;;1.30;;
80307;SDS011;69616;43.522;1.348;2023-07-28T02:07:15;4.03;;;1.40;;
80307;SDS011;69616;43.522;1.348;2023-07-28T02:09:40;6.80;;;1.50;;
80307;SDS011;69616;43.522;1.348;2023-07-28T02:12:06;5.47;;;1.47;;
80307;SDS011;69616;43.522;1.348;2023-07-28T02:14:31;5.20;;;1.43;;
80307;SDS011;69616;43.522;1.348;2023-07-28T02:16:57;5.97;;;1.30;;
80307;SDS011;69616;43.522;1.348;2023-07-28T02:19:22;4.80;;;1.10;;
80307;SDS011;69616;43.522;1.348;2023-07-28T02:21:47;8.57;;;1.43;;
80307;SDS011;69616;43.522;1.348;2023-07-28T02:24:13;5.50;;;1.60;;
80307;SDS011;69616;43.522;1.348;2023-07-28T02:26:38;8.20;;;1.53;;
80307;SDS011;69616;43.522;1.348;2023-07-28T02:29:03;7.47;;;1.80;;
80307;SDS011;69616;43.522;1.348;2023-07-28T02:31:29;4.43;;;1.40;;
80307;SDS011;69616;43.522;1.348;2023-07-28T02:33:54;5.13;;;1.50;;
80307;SDS011;69616;43.522;1.348;2023-07-28T02:36:20;5.43;;;1.60;;
80307;SDS011;69616;43.522;1.348;2023-07-28T02:38:45;4.93;;;1.30;;
80307;SDS011;69616;43.522;1.348;2023-07-28T02:41:11;4.40;;;1.37;;
80307;SDS011;69616;43.522;1.348;2023-07-28T02:43:36;5.23;;;1.30;;
80307;SDS011;69616;43.522;1.348;2023-07-28T02:46:02;6.07;;;1.48;;
80307;SDS011;69616;43.522;1.348;2023-07-28T02:48:28;4.37;;;1.33;;
80307;SDS011;69616;43.522;1.348;2023-07-28T02:50:53;6.17;;;1.60;;
80307;SDS011;69616;43.522;1.348;2023-07-28T02:53:19;5.18;;;1.48;;
80307;SDS011;69616;43.522;1.348;2023-07-28T02:55:45;5.67;;;1.27;;
80307;SDS011;69616;43.522;1.348;2023-07-28T02:58:12;6.78;;;1.50;;
80307;SDS011;69616;43.522;1.348;2023-07-28T03:00:38;6.57;;;1.50;;
80307;SDS011;69616;43.522;1.348;2023-07-28T03:03:05;6.23;;;1.50;;
80307;SDS011;69616;43.522;1.348;2023-07-28T03:05:31;5.03;;;1.63;;
80307;SDS011;69616;43.522;1.348;2023-07-28T03:07:56;7.07;;;1.50;;
80307;SDS011;69616;43.522;1.348;2023-07-28T03:10:22;4.70;;;1.60;;
80307;SDS011;69616;43.522;1.348;2023-07-28T03:12:47;4.87;;;1.80;;
80307;SDS011;69616;43.522;1.348;2023-07-28T03:15:12;6.10;;;1.70;;
80307;SDS011;69616;43.522;1.348;2023-07-28T03:17:38;6.23;;;1.97;;
80307;SDS011;69616;43.522;1.348;2023-07-28T03:20:04;7.60;;;2.00;;
80307;SDS011;69616;43.522;1.348;2023-07-28T03:22:29;8.25;;;1.92;;
80307;SDS011;69616;43.522;1.348;2023-07-28T03:24:55;7.67;;;2.10;;
80307;SDS011;69616;43.522;1.348;2023-07-28T03:27:21;7.53;;;1.90;;
80307;SDS011;69616;43.522;1.348;2023-07-28T03:29:46;7.97;;;2.30;;
80307;SDS011;69616;43.522;1.348;2023-07-28T03:32:12;7.25;;;2.17;;
80307;SDS011;69616;43.522;1.348;2023-07-28T03:34:37;6.63;;;2.33;;
80307;SDS011;69616;43.522;1.348;2023-07-28T03:37:03;5.43;;;1.90;;
80307;SDS011;69616;43.522;1.348;2023-07-28T03:39:29;6.95;;;2.22;;
80307;SDS011;69616;43.522;1.348;2023-07-28T03:41:55;5.90;;;1.77;;
80307;SDS011;69616;43.522;1.348;2023-07-28T03:44:21;6.90;;;1.80;;
80307;SDS011;69616;43.522;1.348;2023-07-28T03:46:46;5.73;;;1.90;;
80307;SDS011;69616;43.522;1.348;2023-07-28T03:49:12;7.53;;;2.10;;
80307;SDS011;69616;43.522;1.348;2023-07-28T03:51:38;8.70;;;2.77;;
80307;SDS011;69616;43.522;1.348;2023-07-28T03:54:03;7.20;;;2.37;;
80307;SDS011;69616;43.522;1.348;2023-07-28T03:56:28;5.17;;;2.00;;
80307;SDS011;69616;43.522;1.348;2023-07-28T03:58:54;6.10;;;2.13;;
80307;SDS011;69616;43.522;1.348;2023-07-28T04:01:19;6.47;;;2.17;;
80307;SDS011;69616;43.522;1.348;2023-07-28T04:03:46;8.95;;;2.10;;
80307;SDS011;69616;43.522;1.348;2023-07-28T04:06:12;6.77;;;2.13;;
80307;SDS011;69616;43.522;1.348;2023-07-28T04:08:38;6.38;;;1.75;;
80307;SDS011;69616;43.522;1.348;2023-07-28T04:11:04;6.20;;;2.10;;
80307;SDS011;69616;43.522;1.348;2023-07-28T04:13:29;7.13;;;1.90;;
80307;SDS011;69616;43.522;1.348;2023-07-28T04:15:55;7.07;;;1.97;;
80307;SDS011;69616;43.522;1.348;2023-07-28T04:18:20;4.80;;;1.80;;
80307;SDS011;69616;43.522;1.348;2023-07-28T04:20:45;7.30;;;1.80;;
80307;SDS011;69616;43.522;1.348;2023-07-28T04:23:11;7.07;;;2.08;;
80307;SDS011;69616;43.522;1.348;2023-07-28T04:25:37;6.73;;;2.30;;
80307;SDS011;69616;43.522;1.348;2023-07-28T04:28:02;7.47;;;2.20;;
80307;SDS011;69616;43.522;1.348;2023-07-28T04:30:28;5.90;;;1.90;;
80307;SDS011;69616;43.522;1.348;2023-07-28T04:32:53;7.30;;;2.30;;
80307;SDS011;69616;43.522;1.348;2023-07-28T04:35:19;6.83;;;2.20;;
80307;SDS011;69616;43.522;1.348;2023-07-28T04:37:45;8.60;;;2.20;;
80307;SDS011;69616;43.522;1.348;2023-07-28T04:40:10;5.07;;;1.98;;
80307;SDS011;69616;43.522;1.348;2023-07-28T04:42:36;6.83;;;1.90;;
80307;SDS011;69616;43.522;1.348;2023-07-28T04:45:02;8.02;;;2.28;;
80307;SDS011;69616;43.522;1.348;2023-07-28T04:47:28;5.80;;;1.87;;
80307;SDS011;69616;43.522;1.348;2023-07-28T04:49:54;5.32;;;2.00;;
80307;SDS011;69616;43.522;1.348;2023-07-28T04:52:19;6.60;;;1.90;;
80307;SDS011;69616;43.522;1.348;2023-07-28T04:54:44;9.00;;;2.07;;
80307;SDS011;69616;43.522;1.348;2023-07-28T04:57:10;11.53;;;2.40;;
80307;SDS011;69616;43.522;1.348;2023-07-28T04:59:35;4.97;;;2.00;;
80307;SDS011;69616;43.522;1.348;2023-07-28T05:02:01;5.72;;;2.08;;
80307;SDS011;69616;43.522;1.348;2023-07-28T05:04:26;7.13;;;1.90;;
80307;SDS011;69616;43.522;1.348;2023-07-28T05:06:51;6.37;;;2.10;;
80307;SDS011;69616;43.522;1.348;2023-07-28T05:09:17;6.67;;;1.80;;
80307;SDS011;69616;43.522;1.348;2023-07-28T05:11:42;7.07;;;2.10;;
80307;SDS011;69616;43.522;1.348;2023-07-28T05:14:08;8.40;;;2.33;;
80307;SDS011;69616;43.522;1.348;2023-07-28T05:16:34;6.03;;;2.20;;
80307;SDS011;69616;43.522;1.348;2023-07-28T05:18:59;5.67;;;2.00;;
80307;SDS011;69616;43.522;1.348;2023-07-28T05:21:25;7.30;;;2.13;;
80307;SDS011;69616;43.522;1.348;2023-07-28T05:23:51;5.17;;;2.10;;
80307;SDS011;69616;43.522;1.348;2023-07-28T05:26:16;7.00;;;2.20;;
80307;SDS011;69616;43.522;1.348;2023-07-28T05:28:41;5.93;;;2.22;;
80307;SDS011;69616;43.522;1.348;2023-07-28T05:31:07;9.17;;;2.67;;
80307;SDS011;69616;43.522;1.348;2023-07-28T05:33:33;7.97;;;2.33;;
80307;SDS011;69616;43.522;1.348;2023-07-28T05:36:02;9.30;;;3.10;;
80307;SDS011;69616;43.522;1.348;2023-07-28T05:38:28;6.70;;;2.33;;
80307;SDS011;69616;43.522;1.348;2023-07-28T05:41:00;7.47;;;2.40;;
80307;SDS011;69616;43.522;1.348;2023-07-28T05:43:28;6.93;;;2.72;;
80307;SDS011;69616;43.522;1.348;2023-07-28T05:45:57;7.57;;;2.60;;
80307;SDS011;69616;43.522;1.348;2023-07-28T05:48:23;8.17;;;2.33;;
80307;SDS011;69616;43.522;1.348;2023-07-28T05:50:48;7.93;;;2.85;;
80307;SDS011;69616;43.522;1.348;2023-07-28T05:53:16;9.52;;;2.70;;
80307;SDS011;69616;43.522;1.348;2023-07-28T05:55:41;6.73;;;2.67;;
80307;SDS011;69616;43.522;1.348;2023-07-28T05:58:07;8.20;;;2.50;;
80307;SDS011;69616;43.522;1.348;2023-07-28T06:00:32;7.57;;;2.70;;
80307;SDS011;69616;43.522;1.348;2023-07-28T06:02:57;8.00;;;2.90;;
80307;SDS011;69616;43.522;1.348;2023-07-28T06:05:23;6.47;;;2.75;;
80307;SDS011;69616;43.522;1.348;2023-07-28T06:07:48;8.50;;;3.37;;
80307;SDS011;69616;43.522;1.348;2023-07-28T06:10:14;7.17;;;3.00;;
80307;SDS011;69616;43.522;1.348;2023-07-28T06:12:39;7.00;;;2.60;;
80307;SDS011;69616;43.522;1.348;2023-07-28T06:15:05;7.27;;;3.23;;
80307;SDS011;69616;43.522;1.348;2023-07-28T06:17:31;6.57;;;3.07;;
80307;SDS011;69616;43.522;1.348;2023-07-28T06:19:56;7.72;;;3.15;;
80307;SDS011;69616;43.522;1.348;2023-07-28T06:22:21;10.93;;;3.37;;
80307;SDS011;69616;43.522;1.348;2023-07-28T06:24:47;10.27;;;3.60;;
80307;SDS011;69616;43.522;1.348;2023-07-28T06:27:12;9.33;;;3.10;;
80307;SDS011;69616;43.522;1.348;2023-07-28T06:29:37;6.70;;;3.53;;
80307;SDS011;69616;43.522;1.348;2023-07-28T06:32:03;7.13;;;3.30;;
80307;SDS011;69616;43.522;1.348;2023-07-28T06:34:29;6.70;;;3.43;;
80307;SDS011;69616;43.522;1.348;2023-07-28T06:36:54;9.13;;;3.23;;
80307;SDS011;69616;43.522;1.348;2023-07-28T06:39:19;9.27;;;3.10;;
80307;SDS011;69616;43.522;1.348;2023-07-28T06:41:45;7.33;;;2.43;;
80307;SDS011;69616;43.522;1.348;2023-07-28T06:44:10;6.60;;;2.67;;
80307;SDS011;69616;43.522;1.348;2023-07-28T06:46:35;7.67;;;2.97;;
80307;SDS011;69616;43.522;1.348;2023-07-28T06:49:01;5.47;;;2.77;;
80307;SDS011;69616;43.522;1.348;2023-07-28T06:51:26;10.57;;;3.20;;
80307;SDS011;69616;43.522;1.348;2023-07-28T06:53:52;9.13;;;3.20;;
80307;SDS011;69616;43.522;1.348;2023-07-28T06:56:17;10.63;;;3.37;;
80307;SDS011;69616;43.522;1.348;2023-07-28T06:58:43;8.65;;;3.08;;
80307;SDS011;69616;43.522;1.348;2023-07-28T07:01:08;6.20;;;3.07;;
80307;SDS011;69616;43.522;1.348;2023-07-28T07:03:36;7.32;;;3.10;;
80307;SDS011;69616;43.522;1.348;2023-07-28T07:06:02;6.63;;;3.23;;
80307;SDS011;69616;43.522;1.348;2023-07-28T07:08:27;7.55;;;3.00;;
80307;SDS011;69616;43.522;1.348;2023-07-28T07:10:53;6.60;;;2.43;;
80307;SDS011;69616;43.522;1.348;2023-07-28T07:13:18;7.25;;;2.40;;
80307;SDS011;69616;43.522;1.348;2023-07-28T07:15:44;10.50;;;2.90;;
80307;SDS011;69616;43.522;1.348;2023-07-28T07:18:10;6.93;;;2.40;;
80307;SDS011;69616;43.522;1.348;2023-07-28T07:20:36;6.40;;;2.50;;
80307;SDS011;69616;43.522;1.348;2023-07-28T07:23:03;6.53;;;2.47;;
80307;SDS011;69616;43.522;1.348;2023-07-28T07:25:31;6.97;;;2.53;;
80307;SDS011;69616;43.522;1.348;2023-07-28T07:27:57;6.78;;;2.15;;
80307;SDS011;69616;43.522;1.348;2023-07-28T07:30:22;8.60;;;2.30;;
80307;SDS011;69616;43.522;1.348;2023-07-28T07:32:47;5.03;;;2.20;;
80307;SDS011;69616;43.522;1.348;2023-07-28T07:35:13;7.97;;;2.50;;
80307;SDS011;69616;43.522;1.348;2023-07-28T07:37:38;6.28;;;2.10;;
80307;SDS011;69616;43.522;1.348;2023-07-28T07:40:05;5.20;;;2.10;;
80307;SDS011;69616;43.522;1.348;2023-07-28T07:42:48;6.65;;;2.40;;
80307;SDS011;69616;43.522;1.348;2023-07-28T07:45:14;4.20;;;2.00;;
80307;SDS011;69616;43.522;1.348;2023-07-28T07:47:42;4.55;;;2.17;;
80307;SDS011;69616;43.522;1.348;2023-07-28T07:50:09;4.63;;;2.00;;
80307;SDS011;69616;43.522;1.348;2023-07-28T07:52:35;7.15;;;2.25;;
80307;SDS011;69616;43.522;1.348;2023-07-28T07:55:02;6.20;;;2.38;;
80307;SDS011;69616;43.522;1.348;2023-07-28T07:57:28;5.85;;;2.00;;
80307;SDS011;69616;43.522;1.348;2023-07-28T07:59:54;5.13;;;2.20;;
80307;SDS011;69616;43.522;1.348;2023-07-28T08:02:19;5.40;;;2.30;;
80307;SDS011;69616;43.522;1.348;2023-07-28T08:04:45;7.27;;;2.00;;
80307;SDS011;69616;43.522;1.348;2023-07-28T08:07:10;6.60;;;2.43;;
80307;SDS011;69616;43.522;1.348;2023-07-28T08:09:35;5.47;;;2.17;;
80307;SDS011;69616;43.522;1.348;2023-07-28T08:12:02;6.13;;;2.30;;
80307;SDS011;69616;43.522;1.348;2023-07-28T08:14:28;5.10;;;2.10;;
80307;SDS011;69616;43.522;1.348;2023-07-28T08:16:53;7.40;;;2.17;;
80307;SDS011;69616;43.522;1.348;2023-07-28T08:19:18;5.45;;;2.30;;
80307;SDS011;69616;43.522;1.348;2023-07-28T08:21:44;5.03;;;2.00;;
80307;SDS011;69616;43.522;1.348;2023-07-28T08:24:10;6.03;;;2.30;;
80307;SDS011;69616;43.522;1.348;2023-07-28T08:26:36;7.05;;;2.30;;
80307;SDS011;69616;43.522;1.348;2023-07-28T08:29:02;5.17;;;2.50;;
80307;SDS011;69616;43.522;1.348;2023-07-28T08:31:27;5.22;;;2.00;;
80307;SDS011;69616;43.522;1.348;2023-07-28T08:33:53;6.13;;;2.33;;
80307;SDS011;69616;43.522;1.348;2023-07-28T08:36:18;6.13;;;2.47;;
80307;SDS011;69616;43.522;1.348;2023-07-28T08:38:43;5.13;;;2.20;;
80307;SDS011;69616;43.522;1.348;2023-07-28T08:41:10;6.78;;;2.55;;
80307;SDS011;69616;43.522;1.348;2023-07-28T08:43:35;5.03;;;2.20;;
80307;SDS011;69616;43.522;1.348;2023-07-28T08:46:01;6.40;;;2.50;;
80307;SDS011;69616;43.522;1.348;2023-07-28T08:48:29;6.75;;;2.55;;
80307;SDS011;69616;43.522;1.348;2023-07-28T08:50:55;5.10;;;2.40;;
80307;SDS011;69616;43.522;1.348;2023-07-28T08:53:20;7.30;;;2.20;;
80307;SDS011;69616;43.522;1.348;2023-07-28T08:55:47;4.63;;;2.20;;
80307;SDS011;69616;43.522;1.348;2023-07-28T08:58:14;5.90;;;2.20;;
80307;SDS011;69616;43.522;1.348;2023-07-28T09:00:46;4.38;;;2.20;;
80307;SDS011;69616;43.522;1.348;2023-07-28T09:03:16;4.95;;;2.20;;
80307;SDS011;69616;43.522;1.348;2023-07-28T09:05:44;6.20;;;2.40;;
80307;SDS011;69616;43.522;1.348;2023-07-28T09:08:14;5.67;;;2.60;;
80307;SDS011;69616;43.522;1.348;2023-07-28T09:10:46;5.82;;;2.25;;
80307;SDS011;69616;43.522;1.348;2023-07-28T09:13:16;5.70;;;2.40;;
80307;SDS011;69616;43.522;1.348;2023-07-28T09:15:43;6.07;;;2.38;;
80307;SDS011;69616;43.522;1.348;2023-07-28T09:18:11;8.50;;;2.70;;
80307;SDS011;69616;43.522;1.348;2023-07-28T09:20:38;6.30;;;2.50;;
80307;SDS011;69616;43.522;1.348;2023-07-28T09:23:05;5.35;;;2.15;;
80307;SDS011;69616;43.522;1.348;2023-07-28T09:25:32;7.47;;;2.63;;
80307;SDS011;69616;43.522;1.348;2023-07-28T09:27:58;7.03;;;2.57;;
80307;SDS011;69616;43.522;1.348;2023-07-28T09:30:24;5.40;;;2.15;;
80307;SDS011;69616;43.522;1.348;2023-07-28T09:32:51;5.68;;;2.20;;
80307;SDS011;69616;43.522;1.348;2023-07-28T09:35:19;5.57;;;2.60;;
80307;SDS011;69616;43.522;1.348;2023-07-28T09:37:47;6.75;;;2.30;;
80307;SDS011;69616;43.522;1.348;2023-07-28T09:40:17;6.32;;;2.63;;
80307;SDS011;69616;43.522;1.348;2023-07-28T09:42:44;6.32;;;2.30;;
80307;SDS011;69616;43.522;1.348;2023-07-28T09:45:14;5.10;;;2.50;;
80307;SDS011;69616;43.522;1.348;2023-07-28T09:47:40;5.33;;;2.20;;
80307;SDS011;69616;43.522;1.348;2023-07-28T09:50:09;5.30;;;2.38;;
80307;SDS011;69616;43.522;1.348;2023-07-28T09:52:42;7.70;;;2.75;;
80307;SDS011;69616;43.522;1.348;2023-07-28T09:55:09;6.85;;;2.30;;
80307;SDS011;69616;43.522;1.348;2023-07-28T09:57:37;5.55;;;2.20;;
80307;SDS011;69616;43.522;1.348;2023-07-28T10:00:06;6.43;;;2.67;;
80307;SDS011;69616;43.522;1.348;2023-07-28T10:02:35;5.50;;;2.47;;
80307;SDS011;69616;43.522;1.348;2023-07-28T10:05:01;5.40;;;2.50;;
80307;SDS011;69616;43.522;1.348;2023-07-28T10:07:27;5.03;;;2.35;;
80307;SDS011;69616;43.522;1.348;2023-07-28T10:09:54;5.63;;;2.40;;
80307;SDS011;69616;43.522;1.348;2023-07-28T10:12:26;6.30;;;2.28;;
80307;SDS011;69616;43.522;1.348;2023-07-28T10:15:02;7.63;;;2.40;;
80307;SDS011;69616;43.522;1.348;2023-07-28T10:17:32;6.55;;;2.47;;
80307;SDS011;69616;43.522;1.348;2023-07-28T10:19:59;5.73;;;2.20;;
80307;SDS011;69616;43.522;1.348;2023-07-28T10:22:27;7.30;;;2.20;;
80307;SDS011;69616;43.522;1.348;2023-07-28T10:27:28;4.95;;;2.38;;
80307;SDS011;69616;43.522;1.348;2023-07-28T10:30:00;5.50;;;2.60;;
80307;SDS011;69616;43.522;1.348;2023-07-28T10:32:36;5.82;;;2.40;;
80307;SDS011;69616;43.522;1.348;2023-07-28T10:35:09;5.00;;;2.17;;
80307;SDS011;69616;43.522;1.348;2023-07-28T10:37:57;6.83;;;2.47;;
80307;SDS011;69616;43.522;1.348;2023-07-28T10:40:23;4.97;;;2.40;;
80307;SDS011;69616;43.522;1.348;2023-07-28T10:42:52;5.93;;;2.67;;
80307;SDS011;69616;43.522;1.348;2023-07-28T10:45:19;6.28;;;2.45;;
80307;SDS011;69616;43.522;1.348;2023-07-28T10:47:45;6.82;;;2.45;;
80307;SDS011;69616;43.522;1.348;2023-07-28T10:50:11;8.03;;;2.90;;
80307;SDS011;69616;43.522;1.348;2023-07-28T10:52:40;6.20;;;2.72;;
80307;SDS011;69616;43.522;1.348;2023-07-28T10:55:19;7.13;;;2.80;;
80307;SDS011;69616;43.522;1.348;2023-07-28T10:57:46;7.97;;;3.00;;
80307;SDS011;69616;43.522;1.348;2023-07-28T11:00:13;5.17;;;2.80;;
80307;SDS011;69616;43.522;1.348;2023-07-28T11:02:50;8.35;;;2.90;;
80307;SDS011;69616;43.522;1.348;2023-07-28T11:05:25;6.53;;;2.92;;
80307;SDS011;69616;43.522;1.348;2023-07-28T11:07:54;6.18;;;2.72;;
80307;SDS011;69616;43.522;1.348;2023-07-28T11:10:20;8.35;;;2.90;;
80307;SDS011;69616;43.522;1.348;2023-07-28T11:12:48;6.67;;;2.80;;
80307;SDS011;69616;43.522;1.348;2023-07-28T11:15:15;6.35;;;2.95;;
80307;SDS011;69616;43.522;1.348;2023-07-28T11:17:43;7.32;;;2.80;;
80307;SDS011;69616;43.522;1.348;2023-07-28T11:20:18;6.82;;;2.70;;
80307;SDS011;69616;43.522;1.348;2023-07-28T11:25:19;5.90;;;3.03;;
80307;SDS011;69616;43.522;1.348;2023-07-28T11:27:46;6.80;;;3.20;;
80307;SDS011;69616;43.522;1.348;2023-07-28T11:30:12;5.45;;;2.95;;
80307;SDS011;69616;43.522;1.348;2023-07-28T11:32:39;5.72;;;2.55;;
80307;SDS011;69616;43.522;1.348;2023-07-28T11:35:07;8.45;;;3.10;;
80307;SDS011;69616;43.522;1.348;2023-07-28T11:37:34;8.03;;;2.90;;
80307;SDS011;69616;43.522;1.348;2023-07-28T11:40:04;8.00;;;3.15;;
80307;SDS011;69616;43.522;1.348;2023-07-28T11:42:40;7.05;;;3.55;;
80307;SDS011;69616;43.522;1.348;2023-07-28T11:45:08;9.63;;;2.80;;
80307;SDS011;69616;43.522;1.348;2023-07-28T11:47:35;6.70;;;3.05;;
80307;SDS011;69616;43.522;1.348;2023-07-28T11:50:00;8.17;;;3.07;;
80307;SDS011;69616;43.522;1.348;2023-07-28T11:52:36;6.97;;;2.77;;
80307;SDS011;69616;43.522;1.348;2023-07-28T11:55:05;7.45;;;3.08;;
80307;SDS011;69616;43.522;1.348;2023-07-28T11:57:31;6.72;;;2.92;;
80307;SDS011;69616;43.522;1.348;2023-07-28T11:59:58;6.10;;;2.90;;
80307;SDS011;69616;43.522;1.348;2023-07-28T12:02:27;5.63;;;2.80;;
80307;SDS011;69616;43.522;1.348;2023-07-28T12:04:54;6.90;;;2.83;;
80307;SDS011;69616;43.522;1.348;2023-07-28T12:07:28;7.40;;;3.15;;
80307;SDS011;69616;43.522;1.348;2023-07-28T12:09:59;7.32;;;2.80;;
80307;SDS011;69616;43.522;1.348;2023-07-28T12:12:47;9.60;;;2.70;;
80307;SDS011;69616;43.522;1.348;2023-07-28T12:15:20;11.87;;;2.93;;
80307;SDS011;69616;43.522;1.348;2023-07-28T12:20:42;5.70;;;2.83;;
80307;SDS011;69616;43.522;1.348;2023-07-28T12:23:11;6.78;;;3.03;;
80307;SDS011;69616;43.522;1.348;2023-07-28T12:25:38;7.50;;;2.55;;
80307;SDS011;69616;43.522;1.348;2023-07-28T12:28:04;5.40;;;2.90;;
80307;SDS011;69616;43.522;1.348;2023-07-28T12:30:31;7.07;;;2.92;;
80307;SDS011;69616;43.522;1.348;2023-07-28T12:32:57;8.10;;;3.30;;
80307;SDS011;69616;43.522;1.348;2023-07-28T12:35:23;7.03;;;3.37;;
80307;SDS011;69616;43.522;1.348;2023-07-28T12:37:51;7.33;;;2.87;;
80307;SDS011;69616;43.522;1.348;2023-07-28T12:40:17;6.88;;;3.10;;
80307;SDS011;69616;43.522;1.348;2023-07-28T12:42:44;6.47;;;3.00;;
80307;SDS011;69616;43.522;1.348;2023-07-28T12:45:11;6.30;;;2.90;;
80307;SDS011;69616;43.522;1.348;2023-07-28T12:47:36;7.45;;;3.17;;
80307;SDS011;69616;43.522;1.348;2023-07-28T12:50:02;7.33;;;3.17;;
80307;SDS011;69616;43.522;1.348;2023-07-28T12:52:27;5.53;;;3.10;;
80307;SDS011;69616;43.522;1.348;2023-07-28T12:54:54;7.23;;;2.77;;
80307;SDS011;69616;43.522;1.348;2023-07-28T12:57:19;10.27;;;3.17;;
80307;SDS011;69616;43.522;1.348;2023-07-28T12:59:45;9.70;;;3.30;;
80307;SDS011;69616;43.522;1.348;2023-07-28T13:02:10;10.97;;;3.20;;
80307;SDS011;69616;43.522;1.348;2023-07-28T13:04:35;8.97;;;3.20;;
80307;SDS011;69616;43.522;1.348;2023-07-28T13:07:01;9.50;;;3.27;;
80307;SDS011;69616;43.522;1.348;2023-07-28T13:09:26;6.38;;;3.00;;
80307;SDS011;69616;43.522;1.348;2023-07-28T13:11:52;9.37;;;3.07;;
80307;SDS011;69616;43.522;1.348;2023-07-28T13:14:17;7.27;;;3.40;;
80307;SDS011;69616;43.522;1.348;2023-07-28T13:16:43;9.02;;;3.35;;
80307;SDS011;69616;43.522;1.348;2023-07-28T13:19:09;8.50;;;3.47;;
80307;SDS011;69616;43.522;1.348;2023-07-28T13:21:35;7.28;;;3.20;;
80307;SDS011;69616;43.522;1.348;2023-07-28T13:24:00;7.83;;;3.10;;
80307;SDS011;69616;43.522;1.348;2023-07-28T13:26:26;8.33;;;3.53;;
80307;SDS011;69616;43.522;1.348;2023-07-28T13:28:51;9.10;;;3.13;;
80307;SDS011;69616;43.522;1.348;2023-07-28T13:31:17;5.60;;;2.80;;
80307;SDS011;69616;43.522;1.348;2023-07-28T13:33:43;6.85;;;3.40;;
80307;SDS011;69616;43.522;1.348;2023-07-28T13:36:09;5.70;;;3.00;;
80307;SDS011;69616;43.522;1.348;2023-07-28T13:38:35;10.07;;;3.07;;
80307;SDS011;69616;43.522;1.348;2023-07-28T13:41:01;6.27;;;3.20;;
80307;SDS011;69616;43.522;1.348;2023-07-28T13:43:29;7.38;;;3.05;;
80307;SDS011;69616;43.522;1.348;2023-07-28T13:45:54;5.70;;;2.90;;
80307;SDS011;69616;43.522;1.348;2023-07-28T13:48:19;7.17;;;2.77;;
80307;SDS011;69616;43.522;1.348;2023-07-28T13:50:45;7.47;;;3.13;;
80307;SDS011;69616;43.522;1.348;2023-07-28T13:53:10;5.65;;;2.80;;
80307;SDS011;69616;43.522;1.348;2023-07-28T13:55:36;7.27;;;3.00;;
80307;SDS011;69616;43.522;1.348;2023-07-28T13:58:01;6.27;;;3.17;;
80307;SDS011;69616;43.522;1.348;2023-07-28T14:00:26;6.53;;;3.10;;
80307;SDS011;69616;43.522;1.348;2023-07-28T14:02:52;9.30;;;3.30;;
80307;SDS011;69616;43.522;1.348;2023-07-28T14:05:17;6.75;;;3.00;;
80307;SDS011;69616;43.522;1.348;2023-07-28T14:07:44;7.97;;;3.10;;
80307;SDS011;69616;43.522;1.348;2023-07-28T14:10:10;7.82;;;3.10;;
80307;SDS011;69616;43.522;1.348;2023-07-28T14:12:35;7.03;;;2.70;;
80307;SDS011;69616;43.522;1.348;2023-07-28T14:15:01;6.47;;;3.00;;
80307;SDS011;69616;43.522;1.348;2023-07-28T14:17:26;6.05;;;2.80;;
80307;SDS011;69616;43.522;1.348;2023-07-28T14:19:51;5.63;;;2.80;;
80307;SDS011;69616;43.522;1.348;2023-07-28T14:22:17;6.43;;;2.90;;
80307;SDS011;69616;43.522;1.348;2023-07-28T14:24:42;6.13;;;3.20;;
80307;SDS011;69616;43.522;1.348;2023-07-28T14:27:07;7.07;;;3.20;;
80307;SDS011;69616;43.522;1.348;2023-07-28T14:29:33;6.03;;;2.93;;
80307;SDS011;69616;43.522;1.348;2023-07-28T14:31:58;6.00;;;2.83;;
80307;SDS011;69616;43.522;1.348;2023-07-28T14:34:24;5.60;;;2.70;;
80307;SDS011;69616;43.522;1.348;2023-07-28T14:36:49;7.00;;;3.00;;
80307;SDS011;69616;43.522;1.348;2023-07-28T14:39:14;7.87;;;3.10;;
80307;SDS011;69616;43.522;1.348;2023-07-28T14:41:40;5.13;;;2.70;;
80307;SDS011;69616;43.522;1.348;2023-07-28T14:44:05;7.60;;;2.93;;
80307;SDS011;69616;43.522;1.348;2023-07-28T14:46:31;8.73;;;2.87;;
80307;SDS011;69616;43.522;1.348;2023-07-28T14:48:59;5.57;;;3.03;;
80307;SDS011;69616;43.522;1.348;2023-07-28T14:51:24;6.43;;;3.13;;
80307;SDS011;69616;43.522;1.348;2023-07-28T14:53:50;7.80;;;2.90;;
80307;SDS011;69616;43.522;1.348;2023-07-28T14:56:15;6.60;;;3.23;;
80307;SDS011;69616;43.522;1.348;2023-07-28T14:58:42;6.97;;;3.00;;